Time;durP1;ratioP1;P1;durP2;ratioP2;P2;SDS_P1;SDS_P2;PMS_P1;PMS_P2;Temp;Humidity;BMP_temperature;BMP_pressure;BME280_temperature;BME280_humidity;BME280_pressure;Samples;Min_cycle;Max_cycle;Signal;HPM_P1;HPM_P2
2021/09/07 00:00:42;;;;;;;35.38;21.05;;;;;;;17.30;72.49;102400.00;5043229;28;20032;-40
2021/09/07 00:03:07;;;;;;;30.40;20.30;;;;;;;17.29;72.89;102392.84;5054418;28;20029;-41
2021/09/07 00:05:32;;;;;;;32.17;20.60;;;;;;;17.25;72.99;102386.94;5037388;28;20374;-40
2021/09/07 00:07:58;;;;;;;36.58;21.20;;;;;;;17.24;72.83;102390.69;5034331;28;20022;-40
2021/09/07 00:10:23;;;;;;;35.08;21.17;;;;;;;17.22;72.94;102392.78;5036173;28;20049;-40
2021/09/07 00:12:48;;;;;;;34.78;21.02;;;;;;;17.22;73.21;102390.03;5021268;28;20086;-40
2021/09/07 00:15:15;;;;;;;34.15;21.23;;;;;;;17.20;72.94;102400.25;5013149;28;20160;-41
2021/09/07 00:17:40;;;;;;;31.83;20.92;;;;;;;17.19;73.37;102386.84;5022739;28;20032;-40
2021/09/07 00:20:07;;;;;;;38.88;22.50;;;;;;;17.17;73.27;102388.91;5034280;28;20029;-40
2021/09/07 00:22:34;;;;;;;33.90;21.65;;;;;;;17.15;73.49;102383.66;5020728;28;20034;-41
2021/09/07 00:24:59;;;;;;;33.33;21.58;;;;;;;17.16;73.27;102382.63;5014348;28;20076;-39
2021/09/07 00:27:24;;;;;;;36.60;21.67;;;;;;;17.20;73.12;102389.38;5014121;28;20482;-41
2021/09/07 00:29:50;;;;;;;39.05;22.05;;;;;;;17.19;73.08;102386.84;5028603;28;20037;-40
2021/09/07 00:32:15;;;;;;;35.28;22.38;;;;;;;17.19;72.84;102378.69;5033866;28;20103;-39
2021/09/07 00:34:40;;;;;;;39.10;22.83;;;;;;;17.18;73.22;102377.00;5033880;28;20106;-40
2021/09/07 00:37:05;;;;;;;35.50;21.10;;;;;;;17.17;73.12;102380.72;5033923;28;20108;-40
2021/09/07 00:39:31;;;;;;;31.92;20.60;;;;;;;17.14;73.08;102379.25;5035508;28;20120;-41
2021/09/07 00:41:56;;;;;;;35.22;22.05;;;;;;;17.09;73.31;102377.09;5033445;28;20029;-41
2021/09/07 00:44:23;;;;;;;36.17;22.30;;;;;;;17.03;73.41;102372.38;5039820;28;20029;-40
2021/09/07 00:46:59;;;;;;;40.53;23.02;;;;;;;16.96;73.76;102374.19;5047248;28;20425;-40
2021/09/07 00:49:27;;;;;;;38.72;23.33;;;;;;;16.93;73.78;102371.84;5039732;28;20040;-40
2021/09/07 00:51:54;;;;;;;37.53;22.80;;;;;;;16.93;74.00;102368.25;5048970;28;20189;-40
2021/09/07 00:54:21;;;;;;;36.15;22.98;;;;;;;16.91;74.13;102375.78;5012363;28;20037;-40
2021/09/07 00:56:47;;;;;;;54.17;25.33;;;;;;;16.92;74.30;102369.31;5013186;28;20022;-41
2021/09/07 00:59:14;;;;;;;42.22;24.77;;;;;;;16.94;74.37;102375.41;5035654;28;20072;-40
2021/09/07 01:01:40;;;;;;;36.77;23.07;;;;;;;16.89;74.28;102368.63;5049076;28;20112;-40
2021/09/07 01:04:05;;;;;;;38.13;23.75;;;;;;;16.89;74.42;102359.63;5035519;28;20100;-40
2021/09/07 01:06:31;;;;;;;36.72;22.25;;;;;;;16.86;74.30;102366.28;5033011;28;20076;-40
2021/09/07 01:08:56;;;;;;;37.72;22.63;;;;;;;16.87;74.49;102361.69;5033315;28;20049;-40
2021/09/07 01:11:22;;;;;;;37.28;23.45;;;;;;;16.81;74.72;102362.47;5033068;28;20446;-40
2021/09/07 01:13:48;;;;;;;38.30;23.50;;;;;;;16.79;74.85;102362.63;5033000;28;20108;-39
2021/09/07 01:16:13;;;;;;;36.08;21.85;;;;;;;16.81;74.86;102360.56;5033008;28;20112;-41
2021/09/07 01:18:40;;;;;;;41.42;23.65;;;;;;;16.79;74.37;102359.91;5036811;28;20388;-39
2021/09/07 01:21:09;;;;;;;38.60;22.88;;;;;;;16.77;74.32;102351.13;5052933;28;20108;-40
2021/09/07 01:23:37;;;;;;;36.13;22.73;;;;;;;16.77;74.84;102350.22;5040542;28;20051;-40
2021/09/07 01:26:02;;;;;;;36.15;23.00;;;;;;;16.73;75.08;102348.91;5032524;28;20128;-40
2021/09/07 01:28:29;;;;;;;34.97;22.38;;;;;;;16.70;75.17;102350.13;5036994;28;20112;-40
2021/09/07 01:30:55;;;;;;;38.75;22.73;;;;;;;16.63;75.12;102354.63;5052601;28;20449;-40
2021/09/07 01:33:20;;;;;;;38.75;23.50;;;;;;;16.62;75.59;102347.50;5052625;28;20082;-40
2021/09/07 01:35:45;;;;;;;41.25;22.35;;;;;;;16.62;75.46;102345.63;5044991;28;20025;-39
2021/09/07 01:38:11;;;;;;;34.35;22.15;;;;;;;16.66;75.21;102344.19;5050304;28;20068;-40
2021/09/07 01:40:36;;;;;;;34.95;21.65;;;;;;;16.66;74.99;102355.06;5032904;28;20121;-40
2021/09/07 01:43:01;;;;;;;39.70;22.10;;;;;;;16.66;75.16;102346.91;5022705;28;20114;-40
2021/09/07 01:45:27;;;;;;;36.40;21.83;;;;;;;16.66;75.07;102343.38;5012850;28;20033;-39
2021/09/07 01:47:53;;;;;;;41.10;22.92;;;;;;;16.65;74.97;102341.69;5019084;28;20029;-40
2021/09/07 01:50:18;;;;;;;38.92;23.00;;;;;;;16.63;75.09;102338.31;5052433;28;20025;-41
2021/09/07 01:52:44;;;;;;;35.60;22.15;;;;;;;16.58;75.04;102344.28;5047894;28;20025;-40
2021/09/07 01:55:09;;;;;;;46.00;24.20;;;;;;;16.54;75.34;102342.16;5032521;28;20053;-40
2021/09/07 01:57:34;;;;;;;38.45;23.65;;;;;;;16.50;75.26;102348.97;5032697;28;20039;-40
2021/09/07 02:00:00;;;;;;;41.05;24.05;;;;;;;16.48;75.27;102346.41;5023642;28;20481;-39
2021/09/07 02:02:25;;;;;;;46.35;23.50;;;;;;;16.49;75.34;102347.28;5012665;28;20037;-40
2021/09/07 02:04:50;;;;;;;40.13;22.80;;;;;;;16.45;75.48;102347.63;5012424;28;20076;-40
2021/09/07 02:07:16;;;;;;;39.25;22.83;;;;;;;16.43;75.71;102348.88;5029597;28;20029;-40
2021/09/07 02:09:41;;;;;;;42.28;23.30;;;;;;;16.42;75.63;102356.16;5047455;28;20170;-39
2021/09/07 02:12:07;;;;;;;42.20;24.05;;;;;;;16.42;75.64;102353.44;5031450;28;20522;-40
2021/09/07 02:14:32;;;;;;;40.45;23.83;;;;;;;16.40;75.50;102352.81;5030668;28;20029;-40
2021/09/07 02:16:58;;;;;;;39.38;22.88;;;;;;;16.39;75.68;102355.69;5018690;28;20409;-39
2021/09/07 02:19:23;;;;;;;38.25;22.95;;;;;;;16.36;75.89;102351.47;5024881;28;20033;-39
2021/09/07 02:21:49;;;;;;;41.75;24.77;;;;;;;16.32;75.95;102350.13;5029814;28;20092;-40
2021/09/07 02:24:14;;;;;;;45.97;24.60;;;;;;;16.31;76.04;102350.34;5041294;28;20082;-39
2021/09/07 02:26:40;;;;;;;41.03;24.45;;;;;;;16.28;76.21;102350.69;5051416;28;20070;-39
2021/09/07 02:29:06;;;;;;;39.42;22.45;;;;;;;16.26;76.25;102341.88;5035626;28;20044;-40
2021/09/07 02:31:31;;;;;;;37.78;23.88;;;;;;;16.22;76.55;102341.41;5032138;28;20509;-40
2021/09/07 02:33:56;;;;;;;39.92;22.80;;;;;;;16.20;76.48;102343.47;5031682;28;20469;-40
2021/09/07 02:36:23;;;;;;;39.03;22.98;;;;;;;16.20;76.39;102340.75;5018983;28;20026;-41
2021/09/07 02:38:50;;;;;;;38.72;22.88;;;;;;;16.21;76.56;102347.84;5028630;28;20128;-41
2021/09/07 02:41:15;;;;;;;39.70;22.55;;;;;;;16.21;76.52;102345.16;5047764;28;20052;-40
2021/09/07 02:43:40;;;;;;;37.05;23.05;;;;;;;16.21;76.25;102339.72;5015025;28;20478;-40
2021/09/07 02:46:06;;;;;;;42.55;23.38;;;;;;;16.16;76.20;102347.56;5012113;28;20030;-40
2021/09/07 02:48:31;;;;;;;40.00;23.17;;;;;;;16.11;76.46;102349.97;5024444;28;20029;-40
2021/09/07 02:50:56;;;;;;;44.15;24.70;;;;;;;16.09;76.66;102343.88;5051383;28;20116;-41
2021/09/07 02:53:22;;;;;;;36.97;22.65;;;;;;;16.06;76.79;102336.97;5032348;28;20478;-41
2021/09/07 02:55:47;;;;;;;42.88;24.30;;;;;;;16.03;76.68;102345.44;5030590;28;20460;-40
2021/09/07 02:58:12;;;;;;;41.65;24.02;;;;;;;15.97;76.97;102343.47;5033873;28;20025;-40
2021/09/07 03:00:37;;;;;;;46.60;25.33;;;;;;;15.97;77.08;102340.75;5051600;28;20044;-41
2021/09/07 03:03:03;;;;;;;41.28;24.02;;;;;;;15.97;77.24;102338.88;5051468;28;20036;-40
2021/09/07 03:05:28;;;;;;;40.40;23.77;;;;;;;15.96;77.11;102331.78;5045677;28;20030;-39
2021/09/07 03:07:53;;;;;;;48.13;24.48;;;;;;;15.95;77.18;102329.22;5030298;28;20029;-39
2021/09/07 03:10:19;;;;;;;42.92;25.10;;;;;;;15.97;76.98;102338.88;5049257;28;20045;-39
2021/09/07 03:12:44;;;;;;;39.65;24.33;;;;;;;15.97;76.77;102333.44;5050793;28;20465;-39
2021/09/07 03:15:10;;;;;;;43.55;24.67;;;;;;;15.95;77.03;102326.50;5030966;28;20449;-40
2021/09/07 03:17:35;;;;;;;39.22;24.10;;;;;;;15.95;76.93;102329.22;5032371;28;20037;-40
2021/09/07 03:20:01;;;;;;;38.67;23.50;;;;;;;15.94;77.08;102327.53;5036468;28;20033;-40
2021/09/07 03:22:29;;;;;;;41.03;23.55;;;;;;;15.95;77.36;102312.94;5034602;28;20774;-39
2021/09/07 03:24:55;;;;;;;38.08;23.90;;;;;;;15.93;77.07;102324.00;5034885;28;20033;-40
2021/09/07 03:27:20;;;;;;;45.60;23.30;;;;;;;15.91;77.43;102325.19;5034926;28;20485;-40
2021/09/07 03:29:45;;;;;;;42.65;22.83;;;;;;;15.89;77.09;102324.53;5049313;28;20029;-40
2021/09/07 03:32:11;;;;;;;43.95;22.35;;;;;;;15.89;77.11;102325.38;5042267;28;20026;-40
2021/09/07 03:34:36;;;;;;;42.22;23.48;;;;;;;15.88;77.19;102323.69;5053593;28;20162;-40
2021/09/07 03:37:01;;;;;;;40.90;24.13;;;;;;;15.86;77.30;102319.47;5054581;28;20366;-40
2021/09/07 03:39:27;;;;;;;46.00;24.45;;;;;;;15.81;77.43;102320.00;5041511;28;20029;-39
2021/09/07 03:41:52;;;;;;;46.08;23.77;;;;;;;15.82;77.51;102328.97;5014512;28;20112;-39
2021/09/07 03:44:17;;;;;;;44.10;25.00;;;;;;;15.79;77.58;102332.91;5034962;28;20056;-40
2021/09/07 03:46:43;;;;;;;40.63;23.70;;;;;;;15.77;77.54;102337.66;5013992;28;20456;-41
2021/09/07 03:49:08;;;;;;;44.40;24.88;;;;;;;15.79;77.45;102341.03;5024938;28;20481;-41
2021/09/07 03:51:33;;;;;;;43.47;24.83;;;;;;;15.77;77.73;102332.22;5034338;28;20405;-41
2021/09/07 03:53:59;;;;;;;39.05;23.65;;;;;;;15.80;77.76;102338.16;5026480;28;20022;-41
2021/09/07 03:56:27;;;;;;;40.40;23.60;;;;;;;15.85;77.70;102334.91;5014663;28;20029;-40
2021/09/07 03:58:52;;;;;;;;;;;;;;;15.87;77.63;102330.13;5030149;28;20100;-40
2021/09/07 04:01:17;;;;;;;43.38;23.70;;;;;;;15.90;77.62;102318.91;5046979;28;19996;-40
2021/09/07 04:03:42;;;;;;;44.83;24.70;;;;;;;15.92;77.34;102321.44;5014686;28;20112;-40
2021/09/07 04:06:08;;;;;;;42.38;24.20;;;;;;;15.89;77.60;102319.94;5014532;28;20060;-41
2021/09/07 04:08:33;;;;;;;42.97;23.80;;;;;;;15.89;77.60;102322.66;5021356;28;20088;-41
2021/09/07 04:10:58;;;;;;;42.03;24.20;;;;;;;15.89;77.58;102319.94;5039523;28;20087;-41
2021/09/07 04:13:24;;;;;;;45.65;24.73;;;;;;;15.89;77.46;102322.66;5034452;28;20029;-40
2021/09/07 04:15:49;;;;;;;49.25;25.85;;;;;;;15.87;77.49;102311.13;5033912;28;20021;-40
2021/09/07 04:18:15;;;;;;;46.55;25.27;;;;;;;15.87;77.67;102318.41;5024011;28;20033;-41
2021/09/07 04:20:40;;;;;;;44.20;23.88;;;;;;;15.86;77.75;102314.88;5029243;28;20034;-41
2021/09/07 04:23:05;;;;;;;47.35;24.45;;;;;;;15.85;77.94;102317.75;5014022;28;20034;-40
2021/09/07 04:25:32;;;;;;;40.08;24.42;;;;;;;15.82;77.60;102324.38;5018923;28;20033;-40
2021/09/07 04:27:57;;;;;;;45.08;24.52;;;;;;;15.77;77.83;102330.38;5014050;28;20117;-40
2021/09/07 04:30:22;;;;;;;39.75;24.15;;;;;;;15.77;77.80;102327.66;5030730;28;20112;-40
2021/09/07 04:32:48;;;;;;;44.53;25.23;;;;;;;15.77;77.91;102333.09;5022615;28;20020;-40
2021/09/07 04:35:13;;;;;;;41.08;24.67;;;;;;;15.77;77.97;102334.94;5037618;28;20033;-40
2021/09/07 04:37:39;;;;;;;44.85;24.92;;;;;;;15.76;77.70;102336.81;5038248;28;20049;-40
2021/09/07 04:40:05;;;;;;;47.90;25.67;;;;;;;15.75;78.01;102345.16;5030315;28;20041;-39
2021/09/07 04:42:30;;;;;;;49.47;25.85;;;;;;;15.75;78.01;102345.16;5013717;28;20030;-40
2021/09/07 04:44:55;;;;;;;46.95;25.85;;;;;;;15.74;78.16;102332.59;5038495;28;20053;-40
2021/09/07 04:47:21;;;;;;;45.58;26.13;;;;;;;15.72;78.20;102337.38;5015729;28;20496;-41
2021/09/07 04:49:46;;;;;;;47.30;26.45;;;;;;;15.70;78.28;102336.72;5034071;28;20112;-40
2021/09/07 04:52:11;;;;;;;48.33;25.65;;;;;;;15.70;78.18;102334.00;5033185;28;20049;-40
2021/09/07 04:54:36;;;;;;;50.25;25.83;;;;;;;15.70;78.36;102342.13;5031371;28;20540;-40
2021/09/07 04:57:02;;;;;;;48.30;25.80;;;;;;;15.72;78.30;102345.53;5032922;28;20362;-40
2021/09/07 04:59:27;;;;;;;58.88;25.77;;;;;;;15.68;78.49;102344.97;5033370;28;20060;-40
2021/09/07 05:01:53;;;;;;;44.25;25.02;;;;;;;15.72;78.59;102345.53;5036883;28;20095;-40
2021/09/07 05:04:18;;;;;;;45.28;26.13;;;;;;;15.76;78.46;102347.66;5015349;28;20110;-40
2021/09/07 05:06:43;;;;;;;44.20;24.80;;;;;;;15.81;78.30;102339.00;5017272;28;20371;-41
2021/09/07 05:09:09;;;;;;;45.15;26.40;;;;;;;15.85;78.51;102339.47;5033693;28;20504;-40
2021/09/07 05:11:34;;;;;;;47.47;26.40;;;;;;;15.88;78.36;102331.84;5032909;28;20425;-40
2021/09/07 05:13:59;;;;;;;47.08;25.30;;;;;;;15.89;78.18;102336.22;5033049;28;20021;-41
2021/09/07 05:16:25;;;;;;;55.42;26.45;;;;;;;15.95;78.26;102337.38;5033020;28;20033;-40
2021/09/07 05:18:50;;;;;;;48.08;25.65;;;;;;;15.99;78.50;102336.00;5042859;28;20470;-40
2021/09/07 05:21:15;;;;;;;51.58;25.75;;;;;;;16.04;78.35;102343.59;5047609;28;20021;-39
2021/09/07 05:23:41;;;;;;;50.38;25.58;;;;;;;16.08;78.44;102343.03;5032835;28;20029;-40
2021/09/07 05:26:07;;;;;;;50.60;26.27;;;;;;;16.12;78.15;102349.81;5046214;28;20036;-40
2021/09/07 05:28:32;;;;;;;49.70;26.20;;;;;;;16.16;77.95;102353.00;5051401;28;20114;-40
2021/09/07 05:30:58;;;;;;;50.30;24.85;;;;;;;16.20;78.12;102347.03;5052629;28;20029;-40
2021/09/07 05:33:24;;;;;;;46.33;24.80;;;;;;;16.26;77.76;102348.16;5052585;28;20028;-40
2021/09/07 05:35:50;;;;;;;44.53;25.90;;;;;;;16.30;77.90;102346.78;5046408;28;20122;-40
2021/09/07 05:38:15;;;;;;;49.53;27.38;;;;;;;16.34;77.96;102345.38;5035734;28;20049;-41
2021/09/07 05:40:40;;;;;;;44.92;25.58;;;;;;;16.36;77.93;102348.75;5051904;28;20112;-40
2021/09/07 05:43:06;;;;;;;49.97;26.35;;;;;;;16.37;77.77;102350.44;5052291;28;20396;-40
2021/09/07 05:45:31;;;;;;;53.65;25.67;;;;;;;16.43;77.89;102344.28;5050819;28;20418;-40
2021/09/07 05:47:56;;;;;;;53.40;27.92;;;;;;;16.50;77.50;102348.97;5050363;28;20099;-41
2021/09/07 05:50:22;;;;;;;65.93;28.90;;;;;;;16.54;77.62;102342.16;5052063;28;20029;-40
2021/09/07 05:52:47;;;;;;;72.65;29.52;;;;;;;16.58;77.35;102348.88;5052414;28;20041;-41
2021/09/07 05:55:13;;;;;;;75.72;29.95;;;;;;;16.64;77.52;102346.28;5050839;28;20358;-41
2021/09/07 05:57:38;;;;;;;75.93;30.80;;;;;;;16.70;77.68;102347.41;5049753;28;20048;-40
2021/09/07 06:00:05;;;;;;;73.35;30.90;;;;;;;16.75;77.30;102355.03;5051985;28;20104;-40
2021/09/07 06:02:31;;;;;;;81.60;32.53;;;;;;;16.79;77.11;102349.03;5051759;28;20389;-40
2021/09/07 06:04:56;;;;;;;75.03;31.70;;;;;;;16.83;76.61;102344.91;5049969;28;20488;-40
2021/09/07 06:07:21;;;;;;;68.22;30.15;;;;;;;16.90;76.65;102345.00;5051938;28;20025;-40
2021/09/07 06:09:47;;;;;;;62.72;31.13;;;;;;;16.93;76.26;102354.66;5051942;28;20059;-40
2021/09/07 06:12:12;;;;;;;66.47;31.60;;;;;;;16.95;76.16;102352.59;5051740;28;20033;-40
2021/09/07 06:14:38;;;;;;;63.28;31.10;;;;;;;17.01;75.53;102351.84;5045693;28;20025;-40
2021/09/07 06:17:03;;;;;;;59.92;30.65;;;;;;;17.04;75.47;102356.94;5040622;28;20370;-40
2021/09/07 06:19:29;;;;;;;67.13;32.00;;;;;;;17.08;75.17;102350.91;5051581;28;20389;-41
2021/09/07 06:21:54;;;;;;;57.47;30.67;;;;;;;17.17;75.08;102350.81;5051580;28;20469;-41
2021/09/07 06:24:19;;;;;;;60.63;30.20;;;;;;;17.27;74.47;102352.22;5043806;28;20029;-41
2021/09/07 06:26:45;;;;;;;60.05;32.05;;;;;;;17.31;74.77;102349.97;5032585;28;20099;-41
2021/09/07 06:29:10;;;;;;;55.63;29.95;;;;;;;17.40;73.88;102356.13;5031367;28;20031;-40
2021/09/07 06:31:36;;;;;;;52.63;29.65;;;;;;;17.45;74.14;102359.13;5045323;28;20094;-41
2021/09/07 06:34:01;;;;;;;54.13;27.75;;;;;;;17.63;72.95;102362.28;5051092;28;20021;-40
2021/09/07 06:36:26;;;;;;;54.47;32.00;;;;;;;17.66;73.56;102366.50;5051403;28;20037;-41
2021/09/07 06:38:52;;;;;;;49.90;27.05;;;;;;;17.74;73.20;102367.22;5038073;28;20029;-40
2021/09/07 06:41:17;;;;;;;67.93;31.70;;;;;;;17.87;72.49;102363.00;5042375;28;20029;-41
2021/09/07 06:43:43;;;;;;;60.05;31.58;;;;;;;17.89;73.08;102363.66;5047952;28;20030;-40
2021/09/07 06:46:09;;;;;;;68.88;30.90;;;;;;;17.91;72.49;102367.03;5034270;28;20469;-39
2021/09/07 06:48:34;;;;;;;62.53;31.85;;;;;;;17.92;72.21;102374.16;5039997;28;20028;-40
2021/09/07 06:50:59;;;;;;;68.50;32.60;;;;;;;17.89;71.65;102369.09;5044660;28;20033;-40
2021/09/07 06:53:25;;;;;;;66.53;31.42;;;;;;;17.99;72.90;102375.91;5035368;28;20069;-40
2021/09/07 06:55:50;;;;;;;60.03;30.15;;;;;;;18.37;71.46;102377.53;5034716;28;20029;-39
2021/09/07 06:58:15;;;;;;;58.60;29.13;;;;;;;19.18;68.68;102377.09;5036157;28;20030;-40
2021/09/07 07:00:41;;;;;;;52.47;28.65;;;;;;;20.17;66.05;102377.44;5041510;28;20025;-40
2021/09/07 07:03:06;;;;;;;48.15;29.23;;;;;;;21.11;62.37;102367.28;5037325;28;20029;-41
2021/09/07 07:05:31;;;;;;;48.58;27.50;;;;;;;21.99;59.86;102374.91;5041037;28;20425;-40
2021/09/07 07:07:57;;;;;;;43.42;27.13;;;;;;;22.64;57.46;102379.28;5048737;28;20606;-40
2021/09/07 07:10:22;;;;;;;53.72;29.42;;;;;;;23.10;55.31;102381.59;5036607;28;20085;-39
2021/09/07 07:12:47;;;;;;;41.67;27.30;;;;;;;23.60;53.32;102384.13;5044720;28;20338;-40
2021/09/07 07:15:13;;;;;;;44.08;27.77;;;;;;;24.04;52.04;102382.06;5051774;28;20496;-40
2021/09/07 07:17:38;;;;;;;38.80;27.38;;;;;;;23.91;51.50;102376.78;5042595;28;20029;-39
2021/09/07 07:20:04;;;;;;;45.33;26.65;;;;;;;23.87;52.26;102378.31;5034936;28;20030;-40
2021/09/07 07:22:29;;;;;;;43.55;27.10;;;;;;;24.05;52.57;102389.25;5047950;28;20029;-41
2021/09/07 07:24:54;;;;;;;41.33;26.38;;;;;;;24.34;51.96;102383.09;5055131;28;20057;-40
2021/09/07 07:27:20;;;;;;;40.95;26.10;;;;;;;24.79;49.63;102388.06;5037018;28;20481;-40
2021/09/07 07:29:46;;;;;;;41.35;26.52;;;;;;;25.03;48.96;102389.72;5036641;28;20390;-41
2021/09/07 07:32:11;;;;;;;42.25;25.52;;;;;;;25.35;47.33;102386.56;5042420;28;20029;-40
2021/09/07 07:34:36;;;;;;;41.60;25.88;;;;;;;25.31;47.92;102390.91;5033917;28;20025;-40
2021/09/07 07:37:04;;;;;;;44.20;25.45;;;;;;;25.18;47.86;102398.34;5034886;28;20040;-41
2021/09/07 07:39:30;;;;;;;39.17;25.67;;;;;;;25.59;48.10;102396.47;5033457;28;20060;-39
2021/09/07 07:41:55;;;;;;;38.40;25.73;;;;;;;26.16;46.09;102401.13;5035620;28;20056;-41
2021/09/07 07:44:21;;;;;;;37.25;24.92;;;;;;;26.11;45.89;102401.03;5034643;28;20477;-41
2021/09/07 07:46:46;;;;;;;35.13;23.73;;;;;;;26.86;44.26;102402.56;5034663;28;20550;-40
2021/09/07 07:49:11;;;;;;;31.00;23.08;;;;;;;27.36;43.22;102400.78;5047438;28;20065;-41
2021/09/07 07:51:37;;;;;;;37.90;24.20;;;;;;;26.85;43.23;102400.88;5034581;28;20022;-40
2021/09/07 07:54:02;;;;;;;33.47;22.63;;;;;;;26.65;42.52;102404.19;5052933;28;20044;-40
2021/09/07 07:56:27;;;;;;;45.10;23.52;;;;;;;26.92;42.93;102404.31;5054176;28;20090;-40
2021/09/07 07:58:53;;;;;;;35.83;23.98;;;;;;;26.83;42.73;102402.22;5054283;28;20028;-41
2021/09/07 08:01:18;;;;;;;35.38;22.77;;;;;;;26.80;43.31;102402.72;5042842;28;20045;-41
2021/09/07 08:03:46;;;;;;;30.67;22.92;;;;;;;26.37;43.12;102396.78;5049676;28;20060;-40
2021/09/07 08:06:12;;;;;;;32.47;23.13;;;;;;;26.13;44.20;102396.09;5054102;28;20035;-40
2021/09/07 08:08:37;;;;;;;35.70;23.77;;;;;;;25.60;45.98;102389.84;5054022;28;20053;-40
2021/09/07 08:11:02;;;;;;;43.35;24.48;;;;;;;25.48;45.36;102402.00;5050595;28;20028;-41
2021/09/07 08:13:28;;;;;;;34.22;23.38;;;;;;;24.94;46.11;102402.19;5035679;28;20481;-41
2021/09/07 08:15:53;;;;;;;32.88;22.58;;;;;;;24.84;47.31;102410.22;5052984;28;20037;-41
2021/09/07 08:18:19;;;;;;;33.22;23.05;;;;;;;24.35;48.39;102410.34;5054564;28;20529;-41
2021/09/07 08:20:44;;;;;;;35.35;21.75;;;;;;;24.29;49.91;102403.88;5047921;28;20541;-41
2021/09/07 08:23:10;;;;;;;30.50;20.65;;;;;;;24.77;47.82;102413.06;5034406;28;20030;-41
2021/09/07 08:25:35;;;;;;;38.42;21.95;;;;;;;24.18;48.09;102409.38;5034418;28;20029;-41
2021/09/07 08:28:00;;;;;;;33.70;20.83;;;;;;;24.21;48.78;102408.91;5032951;28;20160;-41
2021/09/07 08:30:26;;;;;;;34.17;20.33;;;;;;;24.73;47.68;102414.63;5039302;28;20036;-41
2021/09/07 08:32:51;;;;;;;29.63;19.35;;;;;;;26.00;45.44;102404.69;5041281;28;20046;-42
2021/09/07 08:35:16;;;;;;;29.67;20.65;;;;;;;26.22;44.22;102402.03;5034835;28;20021;-41
2021/09/07 08:37:43;;;;;;;36.88;20.83;;;;;;;26.86;43.15;102391.53;5034638;28;20083;-40
2021/09/07 08:40:09;;;;;;;32.93;18.70;;;;;;;27.31;43.20;102403.50;5033331;28;20079;-41
2021/09/07 08:42:35;;;;;;;28.15;18.70;;;;;;;27.11;42.97;102395.72;5045499;28;20287;-39
2021/09/07 08:45:06;;;;;;;33.53;19.92;;;;;;;26.87;43.20;102393.19;5054403;28;20035;-41
2021/09/07 08:47:31;;;;;;;32.42;18.95;;;;;;;26.76;44.52;102407.94;5054074;28;20167;-40
2021/09/07 08:49:57;;;;;;;33.63;19.15;;;;;;;27.23;41.65;102404.78;5053984;28;20040;-40
2021/09/07 08:52:24;;;;;;;32.13;18.73;;;;;;;27.22;42.61;102399.47;5052445;28;20045;-40
2021/09/07 08:54:49;;;;;;;30.55;19.23;;;;;;;28.15;40.23;102397.53;5054475;28;20048;-41
2021/09/07 08:57:15;;;;;;;31.58;19.70;;;;;;;28.66;38.57;102403.50;5052550;28;20460;-40
2021/09/07 08:59:41;;;;;;;26.63;17.90;;;;;;;29.35;38.25;102393.38;5053813;28;20478;-41
2021/09/07 09:02:17;;;;;;;33.97;18.63;;;;;;;29.87;36.36;102397.16;5048631;28;20033;-41
2021/09/07 09:04:47;;;;;;;24.80;17.20;;;;;;;29.84;37.42;102394.94;5035221;28;20030;-42
2021/09/07 09:07:23;;;;;;;29.63;18.05;;;;;;;30.75;34.42;102404.41;5033837;28;20045;-41
2021/09/07 09:09:50;;;;;;;27.67;18.65;;;;;;;30.66;33.16;102401.38;5033792;28;20440;-40
2021/09/07 09:12:16;;;;;;;26.13;18.50;;;;;;;30.29;34.43;102391.41;5032597;28;20488;-41
2021/09/07 09:14:46;;;;;;;24.10;17.27;;;;;;;29.67;35.69;102397.94;5040359;28;20028;-41
2021/09/07 09:17:17;;;;;;;28.98;19.25;;;;;;;29.90;34.57;102397.44;5046504;28;20026;-41
2021/09/07 09:20:05;;;;;;;30.83;18.88;;;;;;;30.25;35.29;102400.56;5033880;28;20079;-41
2021/09/07 09:22:51;;;;;;;31.10;17.80;;;;;;;30.17;35.23;102399.13;5033943;28;20117;-41
2021/09/07 09:25:19;;;;;;;28.02;18.05;;;;;;;30.55;34.55;102395.00;5034414;28;20120;-41
2021/09/07 09:28:05;;;;;;;29.90;18.67;;;;;;;29.41;35.83;102392.31;5034094;28;20503;-42
2021/09/07 09:30:39;;;;;;;23.03;16.83;;;;;;;30.34;36.00;102383.06;5034206;28;20041;-42
2021/09/07 09:33:04;;;;;;;28.38;19.13;;;;;;;30.47;33.74;102394.72;5033063;28;20296;-41
2021/09/07 09:35:30;;;;;;;25.80;18.07;;;;;;;30.31;34.51;102391.97;5041507;28;20036;-41
2021/09/07 09:38:04;;;;;;;23.90;17.47;;;;;;;30.97;33.61;102395.78;5031632;28;20040;-41
2021/09/07 09:40:31;;;;;;;29.92;17.60;;;;;;;31.14;32.44;102396.25;5032805;28;20092;-41
2021/09/07 09:43:20;;;;;;;27.52;17.23;;;;;;;30.98;31.91;102391.88;5032595;28;20068;-41
2021/09/07 09:45:46;;;;;;;26.60;20.50;;;;;;;29.74;33.15;102392.97;5048946;28;20029;-41
2021/09/07 09:48:40;;;;;;;25.27;17.57;;;;;;;29.89;35.16;102384.69;5051334;28;20102;-41
2021/09/07 09:51:06;;;;;;;28.33;17.10;;;;;;;29.53;35.63;102384.56;5046813;28;20057;-41
2021/09/07 09:53:32;;;;;;;30.33;18.60;;;;;;;29.03;33.79;102377.66;5052284;28;20068;-41
2021/09/07 09:55:57;;;;;;;26.80;18.45;;;;;;;28.29;34.83;102377.72;5031739;28;20120;-42
2021/09/07 09:58:23;;;;;;;25.60;18.58;;;;;;;26.62;38.65;102365.16;5031504;28;20100;-42
2021/09/07 10:00:49;;;;;;;27.80;17.60;;;;;;;25.95;39.79;102364.06;5044501;28;20029;-42
2021/09/07 10:03:16;;;;;;;27.95;16.80;;;;;;;25.53;40.99;102361.56;5043624;28;20064;-41
2021/09/07 10:05:42;;;;;;;21.92;14.32;;;;;;;25.72;41.40;102359.44;5030980;28;20021;-40
2021/09/07 10:08:10;;;;;;;26.88;15.43;;;;;;;25.70;41.25;102355.25;5029704;28;20033;-40
2021/09/07 10:10:38;;;;;;;27.02;16.42;;;;;;;25.62;40.42;102364.81;5031748;28;20511;-41
2021/09/07 10:13:07;;;;;;;23.02;15.27;;;;;;;25.77;41.04;102361.47;5031947;28;20047;-41
2021/09/07 10:18:28;;;;;;;25.23;16.45;;;;;;;25.88;40.98;102362.53;5040375;28;20174;-40
2021/09/07 10:24:16;;;;;;;25.00;16.73;;;;;;;25.65;41.58;102357.97;5031002;28;20095;-41
2021/09/07 10:26:44;;;;;;;26.40;16.77;;;;;;;25.58;41.79;102364.44;5036733;28;20437;-42
2021/09/07 10:29:13;;;;;;;24.75;16.50;;;;;;;25.56;42.21;102352.81;5055872;28;20391;-41
2021/09/07 10:31:44;;;;;;;22.05;16.08;;;;;;;25.64;40.62;102351.56;5056135;28;20029;-42
2021/09/07 10:34:11;;;;;;;20.83;13.57;;;;;;;25.75;41.97;102353.47;5056245;28;20357;-41
2021/09/07 10:37:01;;;;;;;25.50;15.35;;;;;;;25.79;41.17;102351.88;5054487;28;20025;-41
2021/09/07 10:39:35;;;;;;;24.02;16.13;;;;;;;25.69;40.77;102346.16;5051098;28;20090;-41
2021/09/07 10:42:04;;;;;;;24.88;15.82;;;;;;;25.77;41.71;102343.00;5055243;28;20094;-40
2021/09/07 10:44:34;;;;;;;24.58;15.52;;;;;;;25.91;40.45;102345.47;5055635;28;20333;-42
2021/09/07 10:47:00;;;;;;;24.38;14.65;;;;;;;25.68;42.22;102339.00;5041048;28;20029;-41
2021/09/07 10:49:38;;;;;;;31.80;15.77;;;;;;;25.76;41.37;102332.25;5037886;28;20086;-42
2021/09/07 10:52:09;;;;;;;;;;;;;;;25.74;42.14;102328.88;5033944;28;20060;-40
2021/09/07 10:54:48;;;;;;;23.55;14.05;;;;;;;25.63;42.25;102328.69;5033637;28;19909;-40
2021/09/07 10:57:31;;;;;;;27.02;14.80;;;;;;;25.62;41.59;102329.78;5035519;28;20021;-41
2021/09/07 10:59:57;;;;;;;25.70;13.93;;;;;;;25.62;41.76;102327.03;5032406;28;20442;-40
2021/09/07 11:02:35;;;;;;;23.20;15.13;;;;;;;25.61;41.20;102319.00;5055139;28;20032;-41
2021/09/07 11:05:05;;;;;;;23.38;14.15;;;;;;;25.99;42.19;102320.28;5055398;28;20065;-42
2021/09/07 11:07:48;;;;;;;29.50;14.48;;;;;;;26.49;40.17;102324.94;5037847;28;20029;-42
2021/09/07 11:10:16;;;;;;;22.33;13.30;;;;;;;26.70;40.21;102326.09;5015779;28;20056;-41
2021/09/07 11:12:52;;;;;;;26.23;12.60;;;;;;;27.18;38.30;102320.94;5015741;28;20377;-40